DAUI

In Salah Airport

In Salah, Algeria
METAR DAUI 180200Z 04004KT 9000 NSC 33/07 Q1008
Observed Flight Rules
Aug-18 @ 02:00 UTC (28 minutes ago) Visual Flight Rules
Wind Visibility Clouds
40° at 4 knots 8,996 meters
  • Clear skies
Temperatures Readings
Current 33°C / 91°F
Dewpoint 7°C / 45°F
Humidity 20%
Altimeter 29.76" Hg
Pressure 1008 hPa
Elevation 269
METAR DAUI 180200Z 04004KT 9000 NSC 33/07 Q1008
Observed Flight Rules
Aug-18 @ 02:00 UTC
(28 minutes ago)
VFR
Wind Visibility
40° at 4 knots 8,996 meters
Clouds
  • Clear skies
Temperature Dewpoint
33°C / 91°F 7°C / 45°F
Humidity Altimeter Pressure
20% 29.76" Hg 1008 hPa